createdAt,value
2023-01-26T00:00:10.726Z,3.83
2023-01-26T00:02:16.918Z,3.83
2023-01-26T00:04:19.804Z,3.83
2023-01-26T00:06:23.153Z,3.78
2023-01-26T00:08:26.190Z,3.79
2023-01-26T00:10:29.165Z,3.78
2023-01-26T00:12:32.068Z,3.77
2023-01-26T00:14:49.904Z,3.78
2023-01-26T00:16:54.413Z,3.80
2023-01-26T00:18:59.886Z,3.80
2023-01-26T00:21:04.009Z,3.81
2023-01-26T00:23:07.178Z,3.82
2023-01-26T00:25:10.715Z,3.72
2023-01-26T00:27:13.655Z,3.69
2023-01-26T00:29:16.610Z,3.68
2023-01-26T00:31:21.228Z,3.69
2023-01-26T00:33:24.188Z,3.69
2023-01-26T00:35:28.456Z,3.68
2023-01-26T00:37:31.787Z,3.65
2023-01-26T00:39:34.767Z,3.65
2023-01-26T00:42:00.450Z,3.66
2023-01-26T00:44:03.503Z,3.67
2023-01-26T00:46:06.435Z,3.68
2023-01-26T00:48:11.646Z,3.70
2023-01-26T00:50:14.871Z,3.71
2023-01-26T00:52:19.107Z,3.72
2023-01-26T00:54:22.035Z,3.72
2023-01-26T00:56:27.883Z,3.67
2023-01-26T00:58:30.846Z,3.68
2023-01-26T01:00:35.253Z,3.63
2023-01-26T01:02:38.244Z,3.63
2023-01-26T01:04:41.215Z,3.63
2023-01-26T01:06:44.447Z,3.65
2023-01-26T01:08:48.949Z,3.67
2023-01-26T01:10:51.868Z,3.65
2023-01-26T01:12:54.813Z,3.66
2023-01-26T01:14:59.556Z,3.66
2023-01-26T01:17:02.527Z,3.72
2023-01-26T01:19:05.585Z,3.69
2023-01-26T01:21:08.979Z,3.66
2023-01-26T01:23:11.879Z,3.62
2023-01-26T01:25:16.254Z,3.61
2023-01-26T01:27:19.254Z,3.61
2023-01-26T01:29:22.194Z,3.64
2023-01-26T01:31:26.209Z,3.65
2023-01-26T01:33:29.232Z,3.63
2023-01-26T01:35:35.735Z,3.60
2023-01-26T01:37:38.669Z,3.59
2023-01-26T01:39:41.607Z,3.59
2023-01-26T01:41:46.025Z,3.58
2023-01-26T01:43:48.978Z,3.59
2023-01-26T01:45:52.487Z,3.59
2023-01-26T01:47:57.399Z,3.59
2023-01-26T01:50:04.211Z,3.58
2023-01-26T01:52:10.208Z,3.61
2023-01-26T01:54:16.748Z,3.63
2023-01-26T01:56:22.037Z,3.64
2023-01-26T01:58:26.676Z,3.64
2023-01-26T02:00:32.831Z,3.61
2023-01-26T02:02:36.251Z,3.63
2023-01-26T02:04:39.537Z,3.60
2023-01-26T02:06:50.651Z,3.59
2023-01-26T02:08:55.738Z,3.59
2023-01-26T02:11:01.467Z,3.62
2023-01-26T02:13:06.392Z,3.60
2023-01-26T02:15:12.064Z,3.60
2023-01-26T02:17:14.969Z,3.58
2023-01-26T02:19:23.512Z,3.56
2023-01-26T02:21:26.633Z,3.58
2023-01-26T02:23:41.083Z,3.57
2023-01-26T02:25:49.110Z,3.55
2023-01-26T02:27:53.749Z,3.57
2023-01-26T02:29:57.481Z,3.56
2023-01-26T02:32:00.476Z,3.55
2023-01-26T02:34:03.614Z,3.55
2023-01-26T02:36:07.805Z,3.54
2023-01-26T02:38:10.874Z,3.53
2023-01-26T02:40:20.035Z,3.50
2023-01-26T02:42:44.408Z,3.48
2023-01-26T02:44:47.924Z,3.45
2023-01-26T02:46:50.936Z,3.43
2023-01-26T02:49:11.920Z,3.46
2023-01-26T02:51:15.028Z,3.45
2023-01-26T02:53:18.916Z,3.47
2023-01-26T02:55:25.183Z,3.47
2023-01-26T02:57:28.640Z,3.48
2023-01-26T02:59:32.233Z,3.49
2023-01-26T03:01:36.499Z,3.47
2023-01-26T03:03:45.182Z,3.45
2023-01-26T03:05:50.296Z,3.47
2023-01-26T03:07:53.904Z,3.47
2023-01-26T03:09:59.832Z,3.47
2023-01-26T03:12:02.792Z,3.48
2023-01-26T03:14:05.794Z,3.47
2023-01-26T03:16:10.353Z,3.45
2023-01-26T03:18:34.213Z,3.42
2023-01-26T03:20:53.318Z,3.41
2023-01-26T03:23:14.133Z,3.41
2023-01-26T03:25:35.401Z,3.37
2023-01-26T03:27:41.704Z,3.36
2023-01-26T03:29:44.997Z,3.35
2023-01-26T03:31:48.201Z,3.34
2023-01-26T03:33:52.591Z,3.33
2023-01-26T03:35:55.876Z,3.32
2023-01-26T03:38:00.104Z,3.30
2023-01-26T03:40:34.258Z,3.30
2023-01-26T03:42:55.569Z,3.29
2023-01-26T03:45:15.962Z,3.30
2023-01-26T03:47:37.255Z,3.29
2023-01-26T03:49:59.189Z,3.28
2023-01-26T03:52:20.060Z,3.27
2023-01-26T03:54:41.685Z,3.29
2023-01-26T03:56:45.243Z,3.29
2023-01-26T03:58:53.460Z,3.29
2023-01-26T04:00:58.737Z,3.33
2023-01-26T04:03:19.074Z,3.33
2023-01-26T04:05:41.273Z,3.36
2023-01-26T04:08:01.633Z,3.36
2023-01-26T04:10:05.023Z,3.33
2023-01-26T04:12:10.213Z,3.35
2023-01-26T04:14:49.307Z,3.35
2023-01-26T04:17:13.307Z,3.36
2023-01-26T04:19:33.868Z,3.34
2023-01-26T04:21:39.111Z,3.34
2023-01-26T04:23:56.398Z,3.32
2023-01-26T04:26:00.041Z,3.31
2023-01-26T04:28:03.322Z,3.30
2023-01-26T04:30:07.975Z,3.28
2023-01-26T04:32:11.921Z,3.27
2023-01-26T04:34:16.502Z,3.26
2023-01-26T04:36:19.766Z,3.27
2023-01-26T04:38:26.785Z,3.25
2023-01-26T04:40:30.533Z,3.23
2023-01-26T04:42:33.955Z,3.24
2023-01-26T04:44:38.234Z,3.22
2023-01-26T04:46:41.603Z,3.23
2023-01-26T04:48:46.785Z,3.20
2023-01-26T04:50:54.847Z,3.25
2023-01-26T04:52:59.038Z,3.26
2023-01-26T04:55:03.437Z,3.26
2023-01-26T04:57:09.009Z,3.25
2023-01-26T04:59:12.997Z,3.26
2023-01-26T05:01:17.565Z,3.21
2023-01-26T05:03:20.718Z,3.18
2023-01-26T05:05:23.870Z,3.17
2023-01-26T05:07:27.028Z,3.16
2023-01-26T05:09:30.121Z,3.16
2023-01-26T05:11:49.682Z,3.14
2023-01-26T05:14:12.944Z,3.12
2023-01-26T05:16:31.766Z,3.11
2023-01-26T05:18:35.051Z,3.11
2023-01-26T05:20:52.806Z,3.11
2023-01-26T05:23:01.582Z,3.10
2023-01-26T05:25:36.656Z,3.06
2023-01-26T05:27:45.393Z,3.02
2023-01-26T05:29:51.011Z,3.01
2023-01-26T05:31:54.681Z,3.00
2023-01-26T05:33:57.900Z,3.00
2023-01-26T05:36:05.045Z,3.01
2023-01-26T05:38:08.519Z,2.99
2023-01-26T05:40:13.995Z,3.00
2023-01-26T05:42:17.391Z,2.97
2023-01-26T05:44:38.350Z,2.95
2023-01-26T05:46:49.959Z,2.95
2023-01-26T05:48:52.908Z,2.97
2023-01-26T05:50:57.437Z,2.97
2023-01-26T05:53:02.967Z,2.98
2023-01-26T05:55:08.515Z,2.97
2023-01-26T05:57:11.903Z,2.97
2023-01-26T05:59:20.055Z,2.98
2023-01-26T06:01:24.567Z,2.98
2023-01-26T06:03:33.596Z,3.01
2023-01-26T06:05:38.825Z,3.00
2023-01-26T06:07:49.815Z,3.02
2023-01-26T06:10:01.408Z,3.01
2023-01-26T06:12:43.114Z,3.01
2023-01-26T06:15:13.377Z,3.04
2023-01-26T06:17:22.334Z,3.03
2023-01-26T06:19:31.529Z,3.03
2023-01-26T06:21:36.325Z,3.04
2023-01-26T06:23:39.463Z,3.04
2023-01-26T06:25:42.620Z,3.04
2023-01-26T06:27:45.554Z,3.06
2023-01-26T06:30:00.040Z,3.06
2023-01-26T06:32:03.547Z,3.09
2023-01-26T06:34:08.853Z,3.09
2023-01-26T06:36:16.116Z,3.08
2023-01-26T06:38:23.235Z,3.08
2023-01-26T06:40:26.952Z,3.09
2023-01-26T06:42:30.275Z,3.09
2023-01-26T06:44:33.298Z,3.09
2023-01-26T06:46:36.390Z,3.08
2023-01-26T06:48:39.899Z,3.09
2023-01-26T06:50:45.777Z,3.11
2023-01-26T06:52:49.508Z,3.11
2023-01-26T06:55:18.579Z,3.10
2023-01-26T06:57:29.935Z,3.08
2023-01-26T06:59:46.394Z,3.09
2023-01-26T07:02:15.483Z,3.07
2023-01-26T07:04:18.620Z,2.98
2023-01-26T07:06:23.164Z,2.94
2023-01-26T07:08:26.357Z,2.96
2023-01-26T07:10:31.533Z,2.96
2023-01-26T07:12:41.853Z,2.95
2023-01-26T07:14:45.111Z,2.94
2023-01-26T07:16:48.186Z,2.95
2023-01-26T07:18:51.216Z,2.97
2023-01-26T07:20:54.120Z,3.01
2023-01-26T07:23:00.532Z,3.01
2023-01-26T07:25:03.690Z,3.02
2023-01-26T07:27:07.443Z,2.94
2023-01-26T07:29:10.634Z,2.94
2023-01-26T07:31:13.993Z,2.97
2023-01-26T07:33:17.069Z,3.00
2023-01-26T07:35:20.059Z,3.01
2023-01-26T07:37:22.997Z,2.97
2023-01-26T07:39:27.849Z,2.97
2023-01-26T07:41:30.985Z,2.98
2023-01-26T07:43:35.167Z,2.96
2023-01-26T07:45:38.125Z,2.95
2023-01-26T07:47:41.080Z,2.98
2023-01-26T07:49:44.016Z,2.99
2023-01-26T07:51:47.004Z,3.00
2023-01-26T07:53:50.082Z,3.01
2023-01-26T07:55:54.456Z,3.03
2023-01-26T07:57:57.780Z,3.05
2023-01-26T08:00:01.037Z,3.07
2023-01-26T08:02:04.083Z,3.09
2023-01-26T08:04:07.425Z,3.11
2023-01-26T08:06:14.101Z,3.10
2023-01-26T08:08:19.395Z,3.13
2023-01-26T08:10:22.426Z,3.14
2023-01-26T08:12:26.767Z,3.14
2023-01-26T08:14:45.071Z,3.15
2023-01-26T08:16:49.158Z,3.18
2023-01-26T08:18:52.360Z,3.17
2023-01-26T08:20:55.853Z,3.19
2023-01-26T08:23:00.477Z,3.21
2023-01-26T08:25:03.680Z,3.20
2023-01-26T08:27:06.695Z,3.21
2023-01-26T08:29:11.097Z,3.21
2023-01-26T08:31:18.611Z,3.23
2023-01-26T08:33:21.675Z,3.24
2023-01-26T08:35:24.664Z,3.25
2023-01-26T08:37:27.667Z,3.24
2023-01-26T08:39:30.607Z,3.25
2023-01-26T08:41:33.984Z,3.27
2023-01-26T08:43:37.209Z,3.28
2023-01-26T08:45:41.693Z,3.30
2023-01-26T08:47:45.403Z,3.33
2023-01-26T08:49:48.440Z,3.34
2023-01-26T08:51:51.454Z,3.35
2023-01-26T08:53:54.796Z,3.38
2023-01-26T08:55:57.745Z,3.38
2023-01-26T08:58:00.880Z,3.37
2023-01-26T09:00:04.993Z,3.38
2023-01-26T09:02:10.164Z,3.39
2023-01-26T09:04:13.256Z,3.40
2023-01-26T09:06:16.371Z,3.41
2023-01-26T09:08:19.302Z,3.39
2023-01-26T09:10:22.285Z,3.37
2023-01-26T09:12:25.303Z,3.39
2023-01-26T09:14:28.707Z,3.40
2023-01-26T09:16:31.889Z,3.43
2023-01-26T09:18:36.551Z,3.43
2023-01-26T09:20:40.139Z,3.44
2023-01-26T09:22:43.602Z,3.47
2023-01-26T09:24:46.591Z,3.48
2023-01-26T09:26:49.615Z,3.47
2023-01-26T09:28:53.130Z,3.48
2023-01-26T09:30:56.495Z,3.49
2023-01-26T09:33:00.278Z,3.50
2023-01-26T09:35:04.985Z,3.53
2023-01-26T09:37:08.407Z,3.53
2023-01-26T09:39:11.470Z,3.53
2023-01-26T09:41:33.550Z,3.55
2023-01-26T09:43:41.535Z,3.53
2023-01-26T09:45:48.188Z,3.53
2023-01-26T09:47:59.857Z,3.51
2023-01-26T09:50:09.559Z,3.53
2023-01-26T09:52:19.552Z,3.54
2023-01-26T09:54:27.813Z,3.51
2023-01-26T09:56:32.632Z,3.53
2023-01-26T09:58:39.315Z,3.56
2023-01-26T10:00:47.436Z,3.55
2023-01-26T10:03:02.184Z,3.53
2023-01-26T10:05:15.852Z,3.54
2023-01-26T10:07:18.939Z,3.45
2023-01-26T10:09:24.292Z,3.44
2023-01-26T10:11:32.041Z,3.47
2023-01-26T10:13:35.635Z,3.53
2023-01-26T10:15:40.621Z,3.54
2023-01-26T10:17:45.041Z,3.59
2023-01-26T10:19:51.720Z,3.59
2023-01-26T10:21:56.766Z,3.61
2023-01-26T10:24:02.903Z,3.64
2023-01-26T10:26:13.479Z,3.59
2023-01-26T10:28:17.619Z,3.63
2023-01-26T10:30:22.283Z,3.63
2023-01-26T10:32:25.499Z,3.64
2023-01-26T10:34:29.030Z,3.62
2023-01-26T10:36:33.227Z,3.64
2023-01-26T10:38:45.051Z,3.65
2023-01-26T10:40:48.061Z,3.67
2023-01-26T10:42:58.925Z,3.71
2023-01-26T10:45:03.582Z,3.73
2023-01-26T10:47:17.921Z,3.77
2023-01-26T10:49:22.052Z,3.80
2023-01-26T10:51:28.033Z,3.78
2023-01-26T10:53:31.584Z,3.76
2023-01-26T10:55:37.307Z,3.76
2023-01-26T10:57:42.325Z,3.74
2023-01-26T10:59:52.705Z,3.75
2023-01-26T11:01:57.469Z,3.67
2023-01-26T11:04:04.943Z,3.69
2023-01-26T11:06:09.176Z,3.69
2023-01-26T11:08:33.713Z,3.63
2023-01-26T11:10:42.960Z,3.60
2023-01-26T11:12:46.047Z,3.59
2023-01-26T11:15:01.472Z,3.48
2023-01-26T11:17:15.715Z,3.48
2023-01-26T11:19:28.331Z,3.48
2023-01-26T11:21:35.346Z,3.49
2023-01-26T11:23:47.548Z,3.48
2023-01-26T11:26:15.446Z,3.46
2023-01-26T11:28:30.995Z,3.43
2023-01-26T11:30:40.547Z,3.42
2023-01-26T11:32:47.989Z,3.41
2023-01-26T11:34:58.877Z,3.49
2023-01-26T11:37:15.721Z,3.46
2023-01-26T11:39:24.525Z,3.44
2023-01-26T11:41:39.369Z,3.42
2023-01-26T11:44:13.336Z,3.48
2023-01-26T11:46:41.067Z,3.46
2023-01-26T11:48:50.694Z,3.49
2023-01-26T11:50:57.311Z,3.45
2023-01-26T11:53:29.025Z,3.41
2023-01-26T11:55:39.812Z,3.39
2023-01-26T11:57:55.019Z,3.44
2023-01-26T12:00:01.971Z,3.43
2023-01-26T12:02:06.919Z,3.42
2023-01-26T12:04:18.476Z,3.39
2023-01-26T12:06:27.175Z,3.39
2023-01-26T12:08:38.349Z,3.42
2023-01-26T12:10:47.891Z,3.44
2023-01-26T12:12:56.267Z,3.51
2023-01-26T12:15:05.953Z,3.42
2023-01-26T12:17:26.624Z,3.27
2023-01-26T12:19:40.155Z,3.23
2023-01-26T12:21:45.752Z,3.20
2023-01-26T12:23:52.878Z,3.12
2023-01-26T12:25:58.202Z,3.07
2023-01-26T12:28:12.426Z,3.10
2023-01-26T12:30:26.100Z,3.08
2023-01-26T12:32:29.264Z,3.07
2023-01-26T12:34:34.251Z,3.04
2023-01-26T12:36:44.163Z,2.91
2023-01-26T12:39:01.475Z,2.81
2023-01-26T12:41:10.040Z,2.77
2023-01-26T12:43:24.802Z,2.83
2023-01-26T12:45:31.202Z,2.89
2023-01-26T12:47:37.397Z,2.88
2023-01-26T12:49:44.806Z,2.93
2023-01-26T12:51:51.866Z,2.98
2023-01-26T12:53:58.725Z,3.02
2023-01-26T12:56:10.099Z,3.08
2023-01-26T12:58:15.765Z,3.12
2023-01-26T13:00:23.669Z,3.12
2023-01-26T13:02:29.459Z,3.18
2023-01-26T13:04:32.586Z,3.20
2023-01-26T13:06:35.834Z,3.20
2023-01-26T13:09:04.506Z,3.23
2023-01-26T13:11:08.972Z,3.23
2023-01-26T13:13:36.914Z,3.24
2023-01-26T13:15:41.368Z,3.25
2023-01-26T13:17:56.712Z,3.24
2023-01-26T13:20:00.224Z,3.23
2023-01-26T13:22:03.505Z,3.24
2023-01-26T13:24:47.066Z,3.28
2023-01-26T13:26:51.718Z,3.32
2023-01-26T13:29:41.616Z,3.32
2023-01-26T13:31:46.014Z,3.32
2023-01-26T13:33:50.273Z,3.32
2023-01-26T13:35:54.928Z,3.29
2023-01-26T13:38:03.519Z,3.32
2023-01-26T13:40:14.950Z,3.30
2023-01-26T13:42:21.812Z,3.36
2023-01-26T13:44:30.896Z,3.37
2023-01-26T13:46:37.752Z,3.33
2023-01-26T13:48:45.315Z,3.27
2023-01-26T13:50:51.466Z,3.27
2023-01-26T13:52:54.524Z,3.28
2023-01-26T13:54:57.889Z,3.31
2023-01-26T13:57:02.498Z,3.34
2023-01-26T13:59:11.556Z,3.33
2023-01-26T14:01:17.051Z,3.39
2023-01-26T14:03:22.821Z,3.37
2023-01-26T14:05:27.340Z,3.42
2023-01-26T14:07:33.779Z,3.43
2023-01-26T14:09:45.727Z,3.36
2023-01-26T14:11:59.385Z,3.31
2023-01-26T14:14:03.004Z,3.21
2023-01-26T14:16:07.959Z,3.24
2023-01-26T14:18:21.741Z,3.18
2023-01-26T14:20:30.011Z,3.11
2023-01-26T14:22:33.003Z,3.12
2023-01-26T14:24:39.705Z,3.15
2023-01-26T14:26:43.195Z,3.17
2023-01-26T14:28:46.862Z,3.18
2023-01-26T14:30:52.896Z,3.17
2023-01-26T14:32:59.208Z,3.14
2023-01-26T14:35:02.412Z,3.15
2023-01-26T14:37:08.302Z,3.19
2023-01-26T14:39:18.153Z,3.22
2023-01-26T14:41:23.420Z,3.17
2023-01-26T14:43:29.758Z,3.15
2023-01-26T14:45:41.581Z,3.13
2023-01-26T14:48:04.425Z,3.15
2023-01-26T14:50:11.696Z,3.16
2023-01-26T14:52:25.536Z,3.17
2023-01-26T15:02:17.920Z,3.06
2023-01-26T15:04:24.886Z,3.06
2023-01-26T15:06:29.533Z,3.06
2023-01-26T15:08:37.576Z,3.01
2023-01-26T15:10:42.846Z,2.98
2023-01-26T15:12:44.857Z,2.97
2023-01-26T15:14:52.627Z,2.95
2023-01-26T15:20:44.534Z,2.94
2023-01-26T15:22:49.990Z,2.93
2023-01-26T15:25:05.940Z,2.95
2023-01-26T15:27:08.997Z,2.94
2023-01-26T15:29:19.791Z,2.98
2023-01-26T15:31:28.389Z,2.98
2023-01-26T15:33:45.808Z,2.96
2023-01-26T15:35:58.433Z,2.99
2023-01-26T15:38:02.880Z,3.03
2023-01-26T15:40:08.985Z,3.09
2023-01-26T15:42:14.283Z,3.11
2023-01-26T15:44:18.689Z,3.11
2023-01-26T15:46:21.906Z,3.14
2023-01-26T15:48:26.712Z,3.16
2023-01-26T15:50:29.852Z,3.17
2023-01-26T15:52:33.334Z,3.16
2023-01-26T15:54:36.343Z,3.16
2023-01-26T15:56:40.724Z,3.16
2023-01-26T15:58:44.093Z,3.13
2023-01-26T16:00:47.449Z,3.16
2023-01-26T16:02:50.668Z,3.20
2023-01-26T16:04:53.760Z,3.20
2023-01-26T16:06:56.852Z,3.22
2023-01-26T16:09:00.224Z,3.24
2023-01-26T16:11:03.176Z,3.23
2023-01-26T16:13:10.178Z,3.24
2023-01-26T16:15:35.281Z,3.25
2023-01-26T16:17:38.300Z,3.27
2023-01-26T16:19:41.341Z,3.23
2023-01-26T16:21:45.206Z,3.23
2023-01-26T16:23:48.595Z,3.20
2023-01-26T16:25:52.254Z,3.20
2023-01-26T16:27:55.551Z,3.21
2023-01-26T16:29:59.967Z,3.20
2023-01-26T16:32:03.191Z,3.20
2023-01-26T16:34:06.203Z,3.24
2023-01-26T16:36:11.482Z,3.23
2023-01-26T16:38:14.526Z,3.22
2023-01-26T16:40:18.698Z,3.23
2023-01-26T16:42:22.318Z,3.19
2023-01-26T16:44:25.457Z,3.17
2023-01-26T16:46:31.605Z,3.17
2023-01-26T16:48:34.885Z,3.21
2023-01-26T16:50:38.015Z,3.18
2023-01-26T16:52:42.044Z,3.21
2023-01-26T16:54:45.645Z,3.20
2023-01-26T16:56:48.639Z,3.15
2023-01-26T16:58:51.998Z,3.10
2023-01-26T17:00:55.567Z,3.11
2023-01-26T17:02:59.998Z,3.12
2023-01-26T17:05:03.042Z,3.13
2023-01-26T17:07:06.188Z,3.13
2023-01-26T17:09:10.480Z,3.13
2023-01-26T17:11:17.847Z,3.10
2023-01-26T17:13:20.881Z,3.13
2023-01-26T17:15:25.234Z,3.12
2023-01-26T17:17:28.233Z,3.12
2023-01-26T17:19:32.593Z,3.13
2023-01-26T17:21:35.749Z,3.14
2023-01-26T17:23:41.590Z,3.16
2023-01-26T17:25:44.666Z,3.16
2023-01-26T17:27:49.768Z,3.16
2023-01-26T17:29:52.829Z,3.17
2023-01-26T17:31:55.939Z,3.17
2023-01-26T17:33:58.975Z,3.16
2023-01-26T17:36:04.375Z,3.16
2023-01-26T17:38:07.314Z,3.14
2023-01-26T17:40:11.675Z,3.14
2023-01-26T17:42:15.135Z,3.13
2023-01-26T17:44:18.146Z,3.11
2023-01-26T17:46:22.234Z,3.11
2023-01-26T17:48:25.194Z,3.14
2023-01-26T17:50:28.260Z,3.13
2023-01-26T17:52:35.277Z,3.11
2023-01-26T17:54:38.331Z,3.07
2023-01-26T17:56:41.324Z,3.08
2023-01-26T17:58:48.629Z,3.06
2023-01-26T18:00:51.777Z,3.04
2023-01-26T18:02:55.127Z,3.04
2023-01-26T18:04:58.173Z,3.07
2023-01-26T18:07:02.695Z,3.06
2023-01-26T18:09:07.112Z,3.05
2023-01-26T18:11:12.337Z,3.05
2023-01-26T18:13:16.081Z,3.05
2023-01-26T18:15:19.136Z,3.05
2023-01-26T18:17:22.300Z,3.07
2023-01-26T18:19:25.460Z,3.06
2023-01-26T18:21:30.115Z,3.05
2023-01-26T18:23:33.136Z,3.07
2023-01-26T18:25:37.603Z,3.06
2023-01-26T18:27:40.826Z,3.09
2023-01-26T18:29:44.075Z,3.08
2023-01-26T18:31:48.031Z,3.07
2023-01-26T18:33:51.229Z,3.04
2023-01-26T18:35:54.282Z,3.05
2023-01-26T18:37:57.342Z,2.99
2023-01-26T18:40:00.427Z,2.95
2023-01-26T18:42:05.040Z,2.94
2023-01-26T18:44:08.405Z,2.92
2023-01-26T18:46:12.202Z,2.92
2023-01-26T18:48:15.261Z,2.94
2023-01-26T18:50:18.784Z,2.89
2023-01-26T18:52:21.915Z,2.91
2023-01-26T18:54:25.696Z,2.89
2023-01-26T18:56:28.900Z,2.85
2023-01-26T18:58:33.278Z,2.81
2023-01-26T19:00:36.421Z,2.79
2023-01-26T19:02:39.570Z,2.76
2023-01-26T19:04:42.863Z,2.76
2023-01-26T19:06:46.682Z,2.77
2023-01-26T19:08:58.588Z,2.78
2023-01-26T19:11:05.461Z,2.81
2023-01-26T19:13:09.387Z,2.82
2023-01-26T19:15:14.140Z,2.81
2023-01-26T19:17:18.186Z,2.79
2023-01-26T19:19:21.286Z,2.77
2023-01-26T19:21:25.183Z,2.74
2023-01-26T19:23:28.687Z,2.73
2023-01-26T19:25:31.958Z,2.71
2023-01-26T19:27:34.943Z,2.68
2023-01-26T19:29:37.984Z,2.69
2023-01-26T19:31:42.780Z,2.69
2023-01-26T19:33:50.891Z,2.66
2023-01-26T19:35:53.881Z,2.61
2023-01-26T19:37:57.212Z,2.59
2023-01-26T19:40:00.329Z,2.59
2023-01-26T19:42:03.385Z,2.54
2023-01-26T19:44:06.771Z,2.48
2023-01-26T19:46:11.738Z,2.40
2023-01-26T19:48:16.483Z,2.41
2023-01-26T19:50:19.918Z,2.40
2023-01-26T19:52:22.899Z,2.43
2023-01-26T19:54:26.034Z,2.44
2023-01-26T19:56:31.447Z,2.44
2023-01-26T19:58:34.547Z,2.36
2023-01-26T20:00:37.545Z,2.33
2023-01-26T20:02:40.686Z,2.34
2023-01-26T20:04:45.573Z,2.33
2023-01-26T20:06:49.919Z,2.33
2023-01-26T20:08:54.135Z,2.30
2023-01-26T20:11:03.755Z,2.31
2023-01-26T20:13:07.320Z,2.32
2023-01-26T20:15:11.773Z,2.28
2023-01-26T20:17:14.940Z,2.29
2023-01-26T20:19:18.163Z,2.29
2023-01-26T20:21:23.351Z,2.26
2023-01-26T20:23:27.331Z,2.23
2023-01-26T20:25:30.555Z,2.24
2023-01-26T20:27:34.109Z,2.25
2023-01-26T20:29:37.125Z,2.27
2023-01-26T20:31:40.179Z,2.27
2023-01-26T20:33:44.230Z,2.28
2023-01-26T20:35:47.305Z,2.26
2023-01-26T20:37:51.715Z,2.24
2023-01-26T20:39:54.752Z,2.26
2023-01-26T20:41:57.722Z,2.25
2023-01-26T20:44:02.656Z,2.26
2023-01-26T20:46:07.477Z,2.25
2023-01-26T20:48:10.548Z,2.27
2023-01-26T20:50:14.193Z,2.27
2023-01-26T20:52:17.370Z,2.29
2023-01-26T20:54:22.786Z,2.31
2023-01-26T20:56:26.770Z,2.31
2023-01-26T20:58:29.845Z,2.31
2023-01-26T21:00:33.016Z,2.31
2023-01-26T21:02:36.072Z,2.31
2023-01-26T21:04:39.136Z,2.32
2023-01-26T21:06:42.177Z,2.32
2023-01-26T21:08:45.251Z,2.32
2023-01-26T21:10:50.568Z,2.35
2023-01-26T21:12:53.529Z,2.33
2023-01-26T21:14:56.511Z,2.32
2023-01-26T21:16:59.754Z,2.33
2023-01-26T21:19:02.869Z,2.33
2023-01-26T21:21:07.687Z,2.33
2023-01-26T21:23:10.811Z,2.34
2023-01-26T21:25:14.114Z,2.33
2023-01-26T21:27:19.149Z,2.34
2023-01-26T21:29:22.424Z,2.35
2023-01-26T21:31:26.712Z,2.34
2023-01-26T21:33:29.907Z,2.36
2023-01-26T21:35:32.898Z,2.36
2023-01-26T21:37:35.924Z,2.38
2023-01-26T21:39:38.913Z,2.39
2023-01-26T21:41:57.193Z,2.38
2023-01-26T21:44:02.985Z,2.39
2023-01-26T21:46:06.405Z,2.41
2023-01-26T21:48:26.855Z,2.41
2023-01-26T21:50:50.031Z,2.40
2023-01-26T21:52:57.815Z,2.43
2023-01-26T21:55:00.869Z,2.41
2023-01-26T21:57:25.443Z,2.41
2023-01-26T21:59:29.284Z,2.39
2023-01-26T22:01:34.010Z,2.38
2023-01-26T22:03:37.710Z,2.37
2023-01-26T22:05:40.710Z,2.35
2023-01-26T22:07:43.812Z,2.38
2023-01-26T22:09:46.883Z,2.40
2023-01-26T22:11:50.637Z,2.38
2023-01-26T22:13:53.977Z,2.37
2023-01-26T22:16:04.187Z,2.38
2023-01-26T22:18:07.447Z,2.36
2023-01-26T22:20:12.186Z,2.36
2023-01-26T22:22:15.738Z,2.40
2023-01-26T22:24:18.981Z,2.40
2023-01-26T22:26:23.536Z,2.41
2023-01-26T22:28:26.531Z,2.40
2023-01-26T22:30:29.612Z,2.42
2023-01-26T22:32:34.014Z,2.39
2023-01-26T22:34:37.079Z,2.40
2023-01-26T22:36:40.490Z,2.42
2023-01-26T22:38:43.967Z,2.44
2023-01-26T22:40:47.008Z,2.40
2023-01-26T22:42:50.083Z,2.42
2023-01-26T22:44:53.046Z,2.45
2023-01-26T22:46:56.012Z,2.45
2023-01-26T22:49:00.739Z,2.44
2023-01-26T22:51:07.951Z,2.47
2023-01-26T22:53:11.565Z,2.46
2023-01-26T22:55:14.543Z,2.47
2023-01-26T22:57:17.570Z,2.44
2023-01-26T22:59:20.633Z,2.43
2023-01-26T23:01:24.104Z,2.45
2023-01-26T23:03:27.130Z,2.56
2023-01-26T23:05:34.448Z,2.49
2023-01-26T23:07:37.451Z,2.47
2023-01-26T23:09:40.470Z,2.48
2023-01-26T23:11:43.483Z,2.52
2023-01-26T23:13:47.505Z,2.54
2023-01-26T23:15:50.524Z,2.54
2023-01-26T23:17:53.871Z,2.52
2023-01-26T23:19:56.935Z,2.46
2023-01-26T23:22:01.364Z,2.46
2023-01-26T23:24:04.411Z,2.37
2023-01-26T23:26:07.570Z,2.37
2023-01-26T23:28:10.565Z,2.34
2023-01-26T23:30:14.692Z,2.36
2023-01-26T23:32:17.762Z,2.36
2023-01-26T23:34:21.238Z,2.40
2023-01-26T23:36:24.200Z,2.41
2023-01-26T23:38:29.567Z,2.40
2023-01-26T23:40:32.485Z,2.43
2023-01-26T23:42:45.227Z,2.45
2023-01-26T23:44:58.463Z,2.45
2023-01-26T23:47:01.610Z,2.39
2023-01-26T23:49:04.617Z,2.33
2023-01-26T23:51:10.061Z,2.28
2023-01-26T23:53:13.255Z,2.25
2023-01-26T23:55:18.049Z,2.26
2023-01-26T23:57:21.017Z,2.23
2023-01-26T23:59:24.193Z,2.26
